sensor_id;sensor_type;location;lat;lon;timestamp;temperature;humidity
9125;DHT22;4597;48.730;9.114;2023-09-19T00:00:46;19.10;99.90
9125;DHT22;4597;48.730;9.114;2023-09-19T00:03:14;19.00;99.90
9125;DHT22;4597;48.730;9.114;2023-09-19T00:05:40;19.00;99.90
9125;DHT22;4597;48.730;9.114;2023-09-19T00:08:09;19.00;99.90
9125;DHT22;4597;48.730;9.114;2023-09-19T00:10:35;19.00;99.90
9125;DHT22;4597;48.730;9.114;2023-09-19T00:13:04;19.00;99.90
9125;DHT22;4597;48.730;9.114;2023-09-19T00:15:35;19.00;99.90
9125;DHT22;4597;48.730;9.114;2023-09-19T00:18:01;19.00;99.90
9125;DHT22;4597;48.730;9.114;2023-09-19T00:20:26;19.00;99.90
9125;DHT22;4597;48.730;9.114;2023-09-19T00:22:54;18.90;99.90
9125;DHT22;4597;48.730;9.114;2023-09-19T00:25:20;18.90;99.90
9125;DHT22;4597;48.730;9.114;2023-09-19T00:27:47;18.90;99.90
9125;DHT22;4597;48.730;9.114;2023-09-19T00:30:13;18.90;99.90
9125;DHT22;4597;48.730;9.114;2023-09-19T00:32:45;18.90;99.90
9125;DHT22;4597;48.730;9.114;2023-09-19T00:35:13;19.00;99.90
9125;DHT22;4597;48.730;9.114;2023-09-19T00:37:39;19.00;99.90
9125;DHT22;4597;48.730;9.114;2023-09-19T00:40:08;18.90;99.90
9125;DHT22;4597;48.730;9.114;2023-09-19T00:42:47;18.90;99.90
9125;DHT22;4597;48.730;9.114;2023-09-19T00:45:14;18.90;99.90
9125;DHT22;4597;48.730;9.114;2023-09-19T00:47:43;19.00;99.90
9125;DHT22;4597;48.730;9.114;2023-09-19T00:50:12;19.00;99.90
9125;DHT22;4597;48.730;9.114;2023-09-19T00:52:40;18.90;99.90
9125;DHT22;4597;48.730;9.114;2023-09-19T00:55:09;18.90;99.90
9125;DHT22;4597;48.730;9.114;2023-09-19T00:57:35;18.90;99.90
9125;DHT22;4597;48.730;9.114;2023-09-19T01:00:03;18.90;99.90
9125;DHT22;4597;48.730;9.114;2023-09-19T01:02:32;18.90;99.90
9125;DHT22;4597;48.730;9.114;2023-09-19T01:04:59;18.80;99.90
9125;DHT22;4597;48.730;9.114;2023-09-19T01:07:25;18.70;99.90
9125;DHT22;4597;48.730;9.114;2023-09-19T01:09:51;18.70;99.90
9125;DHT22;4597;48.730;9.114;2023-09-19T01:12:33;18.70;99.90
9125;DHT22;4597;48.730;9.114;2023-09-19T01:15:06;18.60;99.90
9125;DHT22;4597;48.730;9.114;2023-09-19T01:17:49;18.60;99.90
9125;DHT22;4597;48.730;9.114;2023-09-19T01:20:22;18.60;99.90
9125;DHT22;4597;48.730;9.114;2023-09-19T01:23:05;18.50;99.90
9125;DHT22;4597;48.730;9.114;2023-09-19T01:28:53;18.40;99.90
9125;DHT22;4597;48.730;9.114;2023-09-19T01:31:23;18.40;99.90
9125;DHT22;4597;48.730;9.114;2023-09-19T01:34:00;18.30;99.90
9125;DHT22;4597;48.730;9.114;2023-09-19T01:36:31;18.30;99.90
9125;DHT22;4597;48.730;9.114;2023-09-19T01:39:01;18.20;99.90
9125;DHT22;4597;48.730;9.114;2023-09-19T01:44:36;18.10;99.90
9125;DHT22;4597;48.730;9.114;2023-09-19T01:47:17;18.10;99.90
9125;DHT22;4597;48.730;9.114;2023-09-19T01:50:01;18.10;99.90
9125;DHT22;4597;48.730;9.114;2023-09-19T01:52:30;18.00;99.90
9125;DHT22;4597;48.730;9.114;2023-09-19T01:55:05;18.00;99.90
9125;DHT22;4597;48.730;9.114;2023-09-19T01:57:54;18.00;99.90
9125;DHT22;4597;48.730;9.114;2023-09-19T02:00:24;18.00;99.90
9125;DHT22;4597;48.730;9.114;2023-09-19T02:02:50;18.00;99.90
9125;DHT22;4597;48.730;9.114;2023-09-19T02:05:24;18.00;99.90
9125;DHT22;4597;48.730;9.114;2023-09-19T02:07:51;18.00;99.90
9125;DHT22;4597;48.730;9.114;2023-09-19T02:10:18;18.00;99.90
9125;DHT22;4597;48.730;9.114;2023-09-19T02:12:43;18.00;99.90
9125;DHT22;4597;48.730;9.114;2023-09-19T02:15:10;18.00;99.90
9125;DHT22;4597;48.730;9.114;2023-09-19T02:17:35;17.90;99.90
9125;DHT22;4597;48.730;9.114;2023-09-19T02:20:01;17.80;99.90
9125;DHT22;4597;48.730;9.114;2023-09-19T02:22:28;17.80;99.90
9125;DHT22;4597;48.730;9.114;2023-09-19T02:24:54;17.80;99.90
9125;DHT22;4597;48.730;9.114;2023-09-19T02:27:23;17.80;99.90
9125;DHT22;4597;48.730;9.114;2023-09-19T02:29:49;17.80;99.90
9125;DHT22;4597;48.730;9.114;2023-09-19T02:32:15;17.80;99.90
9125;DHT22;4597;48.730;9.114;2023-09-19T02:34:43;17.80;99.90
9125;DHT22;4597;48.730;9.114;2023-09-19T02:37:10;17.80;99.90
9125;DHT22;4597;48.730;9.114;2023-09-19T02:39:35;17.90;99.90
9125;DHT22;4597;48.730;9.114;2023-09-19T02:42:01;17.90;99.90
9125;DHT22;4597;48.730;9.114;2023-09-19T02:44:29;17.80;99.90
9125;DHT22;4597;48.730;9.114;2023-09-19T02:46:55;17.90;99.90
9125;DHT22;4597;48.730;9.114;2023-09-19T02:49:20;17.80;99.90
9125;DHT22;4597;48.730;9.114;2023-09-19T02:51:46;17.90;99.90
9125;DHT22;4597;48.730;9.114;2023-09-19T02:54:12;17.90;99.90
9125;DHT22;4597;48.730;9.114;2023-09-19T02:56:39;18.00;99.90
9125;DHT22;4597;48.730;9.114;2023-09-19T02:59:05;18.00;99.90
9125;DHT22;4597;48.730;9.114;2023-09-19T03:01:31;18.00;99.90
9125;DHT22;4597;48.730;9.114;2023-09-19T03:03:57;18.00;99.90
9125;DHT22;4597;48.730;9.114;2023-09-19T03:06:23;18.00;99.90
9125;DHT22;4597;48.730;9.114;2023-09-19T03:08:49;18.00;99.90
9125;DHT22;4597;48.730;9.114;2023-09-19T03:11:17;18.00;99.90
9125;DHT22;4597;48.730;9.114;2023-09-19T03:13:50;18.00;99.90
9125;DHT22;4597;48.730;9.114;2023-09-19T03:16:16;18.00;99.90
9125;DHT22;4597;48.730;9.114;2023-09-19T03:18:41;17.90;99.90
9125;DHT22;4597;48.730;9.114;2023-09-19T03:21:07;18.00;99.90
9125;DHT22;4597;48.730;9.114;2023-09-19T03:23:33;18.00;99.90
9125;DHT22;4597;48.730;9.114;2023-09-19T03:25:58;18.00;99.90
9125;DHT22;4597;48.730;9.114;2023-09-19T03:28:24;18.00;99.90
9125;DHT22;4597;48.730;9.114;2023-09-19T03:31:03;18.00;99.90
9125;DHT22;4597;48.730;9.114;2023-09-19T03:33:29;18.10;99.90
9125;DHT22;4597;48.730;9.114;2023-09-19T03:35:57;18.10;99.90
9125;DHT22;4597;48.730;9.114;2023-09-19T03:38:23;18.10;99.90
9125;DHT22;4597;48.730;9.114;2023-09-19T03:40:49;18.10;99.90
9125;DHT22;4597;48.730;9.114;2023-09-19T03:43:14;18.10;99.90
9125;DHT22;4597;48.730;9.114;2023-09-19T03:45:40;18.10;99.90
9125;DHT22;4597;48.730;9.114;2023-09-19T03:48:09;18.20;99.90
9125;DHT22;4597;48.730;9.114;2023-09-19T03:50:35;18.20;99.90
9125;DHT22;4597;48.730;9.114;2023-09-19T03:53:01;18.10;99.90
9125;DHT22;4597;48.730;9.114;2023-09-19T03:55:27;18.10;99.90
9125;DHT22;4597;48.730;9.114;2023-09-19T03:57:53;18.10;99.90
9125;DHT22;4597;48.730;9.114;2023-09-19T04:00:19;18.00;99.90
9125;DHT22;4597;48.730;9.114;2023-09-19T04:02:48;17.90;99.90
9125;DHT22;4597;48.730;9.114;2023-09-19T04:05:13;17.80;99.90
9125;DHT22;4597;48.730;9.114;2023-09-19T04:07:39;17.60;99.90
9125;DHT22;4597;48.730;9.114;2023-09-19T04:10:05;17.50;99.90
9125;DHT22;4597;48.730;9.114;2023-09-19T04:12:31;17.50;99.90
9125;DHT22;4597;48.730;9.114;2023-09-19T04:14:57;17.40;99.90
9125;DHT22;4597;48.730;9.114;2023-09-19T04:17:23;17.40;99.90
9125;DHT22;4597;48.730;9.114;2023-09-19T04:19:48;17.30;99.90
9125;DHT22;4597;48.730;9.114;2023-09-19T04:22:14;17.20;99.90
9125;DHT22;4597;48.730;9.114;2023-09-19T04:24:39;17.20;99.90
9125;DHT22;4597;48.730;9.114;2023-09-19T04:27:05;17.30;99.90
9125;DHT22;4597;48.730;9.114;2023-09-19T04:29:31;17.20;99.90
9125;DHT22;4597;48.730;9.114;2023-09-19T04:31:57;17.30;99.90
9125;DHT22;4597;48.730;9.114;2023-09-19T04:34:23;17.30;99.90
9125;DHT22;4597;48.730;9.114;2023-09-19T04:36:49;17.30;99.90
9125;DHT22;4597;48.730;9.114;2023-09-19T04:39:15;17.30;99.90
9125;DHT22;4597;48.730;9.114;2023-09-19T04:41:42;17.40;99.90
9125;DHT22;4597;48.730;9.114;2023-09-19T04:44:07;17.30;99.90
9125;DHT22;4597;48.730;9.114;2023-09-19T04:46:36;17.30;99.90
9125;DHT22;4597;48.730;9.114;2023-09-19T04:49:01;17.30;99.90
9125;DHT22;4597;48.730;9.114;2023-09-19T04:51:27;17.30;99.90
9125;DHT22;4597;48.730;9.114;2023-09-19T04:53:58;17.30;99.90
9125;DHT22;4597;48.730;9.114;2023-09-19T04:56:23;17.30;99.90
9125;DHT22;4597;48.730;9.114;2023-09-19T04:58:49;17.30;99.90
9125;DHT22;4597;48.730;9.114;2023-09-19T05:01:15;17.20;99.90
9125;DHT22;4597;48.730;9.114;2023-09-19T05:03:41;17.30;99.90
9125;DHT22;4597;48.730;9.114;2023-09-19T05:06:07;17.20;99.90
9125;DHT22;4597;48.730;9.114;2023-09-19T05:08:33;17.30;99.90
9125;DHT22;4597;48.730;9.114;2023-09-19T05:11:02;17.30;99.90
9125;DHT22;4597;48.730;9.114;2023-09-19T05:13:27;17.30;99.90
9125;DHT22;4597;48.730;9.114;2023-09-19T05:15:53;17.30;99.90
9125;DHT22;4597;48.730;9.114;2023-09-19T05:18:18;17.30;99.90
9125;DHT22;4597;48.730;9.114;2023-09-19T05:20:44;17.30;99.90
9125;DHT22;4597;48.730;9.114;2023-09-19T05:23:09;17.40;99.90
9125;DHT22;4597;48.730;9.114;2023-09-19T05:25:38;17.30;99.90
9125;DHT22;4597;48.730;9.114;2023-09-19T05:28:06;17.30;99.90
9125;DHT22;4597;48.730;9.114;2023-09-19T05:30:32;17.20;99.90
9125;DHT22;4597;48.730;9.114;2023-09-19T05:32:58;17.20;99.90
9125;DHT22;4597;48.730;9.114;2023-09-19T05:35:24;17.20;99.90
9125;DHT22;4597;48.730;9.114;2023-09-19T05:37:51;17.10;99.90
9125;DHT22;4597;48.730;9.114;2023-09-19T05:40:19;17.10;99.90
9125;DHT22;4597;48.730;9.114;2023-09-19T05:42:46;17.00;99.90
9125;DHT22;4597;48.730;9.114;2023-09-19T05:45:12;17.00;99.90
9125;DHT22;4597;48.730;9.114;2023-09-19T05:47:39;16.90;99.90
9125;DHT22;4597;48.730;9.114;2023-09-19T05:50:06;17.00;99.90
9125;DHT22;4597;48.730;9.114;2023-09-19T05:52:37;17.00;99.90
9125;DHT22;4597;48.730;9.114;2023-09-19T05:55:05;16.90;99.90
9125;DHT22;4597;48.730;9.114;2023-09-19T05:57:32;16.90;99.90
9125;DHT22;4597;48.730;9.114;2023-09-19T05:59:58;16.90;99.90
9125;DHT22;4597;48.730;9.114;2023-09-19T06:02:23;16.80;99.90
9125;DHT22;4597;48.730;9.114;2023-09-19T06:04:49;16.80;99.90
9125;DHT22;4597;48.730;9.114;2023-09-19T06:07:14;16.90;99.90
9125;DHT22;4597;48.730;9.114;2023-09-19T06:09:41;16.80;99.90
9125;DHT22;4597;48.730;9.114;2023-09-19T06:12:07;16.70;99.90
9125;DHT22;4597;48.730;9.114;2023-09-19T06:14:33;16.80;99.90
9125;DHT22;4597;48.730;9.114;2023-09-19T06:16:58;16.80;99.90
9125;DHT22;4597;48.730;9.114;2023-09-19T06:19:25;16.80;99.90
9125;DHT22;4597;48.730;9.114;2023-09-19T06:21:52;16.90;99.90
9125;DHT22;4597;48.730;9.114;2023-09-19T06:24:19;17.00;99.90
9125;DHT22;4597;48.730;9.114;2023-09-19T06:26:45;16.90;99.90
9125;DHT22;4597;48.730;9.114;2023-09-19T06:29:10;16.90;99.90
9125;DHT22;4597;48.730;9.114;2023-09-19T06:31:38;16.90;99.90
9125;DHT22;4597;48.730;9.114;2023-09-19T06:34:04;16.90;99.90
9125;DHT22;4597;48.730;9.114;2023-09-19T06:36:29;16.90;99.90
9125;DHT22;4597;48.730;9.114;2023-09-19T06:38:55;16.80;99.90
9125;DHT22;4597;48.730;9.114;2023-09-19T06:41:20;16.90;99.90
9125;DHT22;4597;48.730;9.114;2023-09-19T06:43:50;16.80;99.90
9125;DHT22;4597;48.730;9.114;2023-09-19T06:46:18;16.90;99.90
9125;DHT22;4597;48.730;9.114;2023-09-19T06:48:44;16.90;99.90
9125;DHT22;4597;48.730;9.114;2023-09-19T06:51:10;16.90;99.90
9125;DHT22;4597;48.730;9.114;2023-09-19T06:53:35;16.90;99.90
9125;DHT22;4597;48.730;9.114;2023-09-19T06:56:02;16.90;99.90
9125;DHT22;4597;48.730;9.114;2023-09-19T06:58:27;16.90;99.90
9125;DHT22;4597;48.730;9.114;2023-09-19T07:00:53;17.00;99.90
9125;DHT22;4597;48.730;9.114;2023-09-19T07:03:19;16.90;99.90
9125;DHT22;4597;48.730;9.114;2023-09-19T07:05:48;17.00;99.90
9125;DHT22;4597;48.730;9.114;2023-09-19T07:08:13;17.00;99.90
9125;DHT22;4597;48.730;9.114;2023-09-19T07:10:40;17.00;99.90
9125;DHT22;4597;48.730;9.114;2023-09-19T07:13:07;17.00;99.90
9125;DHT22;4597;48.730;9.114;2023-09-19T07:15:36;17.00;99.90
9125;DHT22;4597;48.730;9.114;2023-09-19T07:18:02;17.00;99.90
9125;DHT22;4597;48.730;9.114;2023-09-19T07:20:27;17.00;99.90
9125;DHT22;4597;48.730;9.114;2023-09-19T07:22:57;16.90;99.90
9125;DHT22;4597;48.730;9.114;2023-09-19T07:25:29;16.80;99.90
9125;DHT22;4597;48.730;9.114;2023-09-19T07:27:56;16.90;99.90
9125;DHT22;4597;48.730;9.114;2023-09-19T07:30:22;16.90;99.90
9125;DHT22;4597;48.730;9.114;2023-09-19T07:32:47;16.90;99.90
9125;DHT22;4597;48.730;9.114;2023-09-19T07:35:13;17.00;99.90
9125;DHT22;4597;48.730;9.114;2023-09-19T07:37:40;16.90;99.90
9125;DHT22;4597;48.730;9.114;2023-09-19T07:40:06;17.00;99.90
9125;DHT22;4597;48.730;9.114;2023-09-19T07:42:35;17.00;99.90
9125;DHT22;4597;48.730;9.114;2023-09-19T07:45:04;17.10;99.90
9125;DHT22;4597;48.730;9.114;2023-09-19T07:47:30;17.10;99.90
9125;DHT22;4597;48.730;9.114;2023-09-19T07:49:58;17.10;99.90
9125;DHT22;4597;48.730;9.114;2023-09-19T07:52:24;17.20;99.90
9125;DHT22;4597;48.730;9.114;2023-09-19T07:54:49;17.20;99.90
9125;DHT22;4597;48.730;9.114;2023-09-19T07:57:15;17.30;99.90
9125;DHT22;4597;48.730;9.114;2023-09-19T07:59:42;17.30;99.90
9125;DHT22;4597;48.730;9.114;2023-09-19T08:02:08;17.30;99.90
9125;DHT22;4597;48.730;9.114;2023-09-19T08:04:42;17.50;99.90
9125;DHT22;4597;48.730;9.114;2023-09-19T08:07:07;17.50;99.90
9125;DHT22;4597;48.730;9.114;2023-09-19T08:09:34;17.50;99.90
9125;DHT22;4597;48.730;9.114;2023-09-19T08:12:00;17.60;99.90
9125;DHT22;4597;48.730;9.114;2023-09-19T08:14:28;17.60;99.90
9125;DHT22;4597;48.730;9.114;2023-09-19T08:16:58;17.70;99.90
9125;DHT22;4597;48.730;9.114;2023-09-19T08:19:24;17.70;99.90
9125;DHT22;4597;48.730;9.114;2023-09-19T08:21:55;17.80;99.90
9125;DHT22;4597;48.730;9.114;2023-09-19T08:24:27;17.80;99.90
9125;DHT22;4597;48.730;9.114;2023-09-19T08:26:54;17.90;99.90
9125;DHT22;4597;48.730;9.114;2023-09-19T08:29:20;18.00;99.90
9125;DHT22;4597;48.730;9.114;2023-09-19T08:31:45;18.10;99.90
9125;DHT22;4597;48.730;9.114;2023-09-19T08:34:13;18.10;99.90
9125;DHT22;4597;48.730;9.114;2023-09-19T08:36:38;18.20;99.90
9125;DHT22;4597;48.730;9.114;2023-09-19T08:39:04;18.30;99.90
9125;DHT22;4597;48.730;9.114;2023-09-19T08:41:30;18.50;99.90
9125;DHT22;4597;48.730;9.114;2023-09-19T08:43:59;18.50;99.90
9125;DHT22;4597;48.730;9.114;2023-09-19T08:46:30;18.60;99.90
9125;DHT22;4597;48.730;9.114;2023-09-19T08:49:07;18.50;99.90
9125;DHT22;4597;48.730;9.114;2023-09-19T08:51:41;18.50;99.90
9125;DHT22;4597;48.730;9.114;2023-09-19T08:54:17;18.70;99.90
9125;DHT22;4597;48.730;9.114;2023-09-19T08:56:47;18.70;99.90
9125;DHT22;4597;48.730;9.114;2023-09-19T08:59:14;18.70;99.90
9125;DHT22;4597;48.730;9.114;2023-09-19T09:01:41;18.80;99.90
9125;DHT22;4597;48.730;9.114;2023-09-19T09:04:11;18.80;99.90
9125;DHT22;4597;48.730;9.114;2023-09-19T09:06:38;18.80;99.90
9125;DHT22;4597;48.730;9.114;2023-09-19T09:09:06;18.90;99.90
9125;DHT22;4597;48.730;9.114;2023-09-19T09:11:33;18.90;99.90
9125;DHT22;4597;48.730;9.114;2023-09-19T09:13:59;18.90;99.90
9125;DHT22;4597;48.730;9.114;2023-09-19T09:16:24;18.80;99.90
9125;DHT22;4597;48.730;9.114;2023-09-19T09:18:51;18.70;99.90
9125;DHT22;4597;48.730;9.114;2023-09-19T09:21:20;18.60;99.90
9125;DHT22;4597;48.730;9.114;2023-09-19T09:23:47;18.60;99.90
9125;DHT22;4597;48.730;9.114;2023-09-19T09:26:13;18.60;99.90
9125;DHT22;4597;48.730;9.114;2023-09-19T09:28:44;18.70;99.90
9125;DHT22;4597;48.730;9.114;2023-09-19T09:31:25;18.80;99.90
9125;DHT22;4597;48.730;9.114;2023-09-19T09:33:55;18.90;99.90
9125;DHT22;4597;48.730;9.114;2023-09-19T09:36:40;18.90;99.90
9125;DHT22;4597;48.730;9.114;2023-09-19T09:39:07;18.90;99.90
9125;DHT22;4597;48.730;9.114;2023-09-19T09:41:50;18.80;99.90
9125;DHT22;4597;48.730;9.114;2023-09-19T09:44:17;18.90;99.90
9125;DHT22;4597;48.730;9.114;2023-09-19T09:46:47;18.90;99.90
9125;DHT22;4597;48.730;9.114;2023-09-19T09:49:25;18.90;99.90
9125;DHT22;4597;48.730;9.114;2023-09-19T09:52:03;18.80;99.90
9125;DHT22;4597;48.730;9.114;2023-09-19T09:54:31;18.80;99.90
9125;DHT22;4597;48.730;9.114;2023-09-19T09:57:04;18.80;99.90
9125;DHT22;4597;48.730;9.114;2023-09-19T09:59:52;18.80;99.90
9125;DHT22;4597;48.730;9.114;2023-09-19T10:02:28;18.80;99.90
9125;DHT22;4597;48.730;9.114;2023-09-19T10:04:58;18.90;99.90
9125;DHT22;4597;48.730;9.114;2023-09-19T10:07:32;19.00;99.90
9125;DHT22;4597;48.730;9.114;2023-09-19T10:10:02;19.20;99.90
9125;DHT22;4597;48.730;9.114;2023-09-19T10:12:48;19.20;99.90
9125;DHT22;4597;48.730;9.114;2023-09-19T10:15:16;19.30;99.90
9125;DHT22;4597;48.730;9.114;2023-09-19T10:17:43;19.40;99.90
9125;DHT22;4597;48.730;9.114;2023-09-19T10:20:12;19.60;99.90
9125;DHT22;4597;48.730;9.114;2023-09-19T10:22:50;19.70;99.90
9125;DHT22;4597;48.730;9.114;2023-09-19T10:25:29;19.80;99.90
9125;DHT22;4597;48.730;9.114;2023-09-19T10:27:57;19.70;99.90
9125;DHT22;4597;48.730;9.114;2023-09-19T10:30:24;19.60;99.90
9125;DHT22;4597;48.730;9.114;2023-09-19T10:33:03;19.50;99.90
9125;DHT22;4597;48.730;9.114;2023-09-19T10:35:32;19.40;99.90
9125;DHT22;4597;48.730;9.114;2023-09-19T10:38:00;19.30;99.90
9125;DHT22;4597;48.730;9.114;2023-09-19T10:40:29;19.40;99.90
9125;DHT22;4597;48.730;9.114;2023-09-19T10:43:05;19.40;99.90
9125;DHT22;4597;48.730;9.114;2023-09-19T10:45:32;19.50;99.90
9125;DHT22;4597;48.730;9.114;2023-09-19T10:47:59;19.60;99.90
9125;DHT22;4597;48.730;9.114;2023-09-19T10:50:28;19.70;99.90
9125;DHT22;4597;48.730;9.114;2023-09-19T10:52:59;19.80;99.90
9125;DHT22;4597;48.730;9.114;2023-09-19T10:55:32;19.90;99.90
9125;DHT22;4597;48.730;9.114;2023-09-19T10:58:00;19.90;99.90
9125;DHT22;4597;48.730;9.114;2023-09-19T11:00:26;20.00;99.90
9125;DHT22;4597;48.730;9.114;2023-09-19T11:05:40;20.30;99.90
9125;DHT22;4597;48.730;9.114;2023-09-19T11:08:10;20.30;99.90
9125;DHT22;4597;48.730;9.114;2023-09-19T11:10:47;20.30;99.90
9125;DHT22;4597;48.730;9.114;2023-09-19T11:13:30;20.20;98.40
9125;DHT22;4597;48.730;9.114;2023-09-19T11:16:03;20.30;98.30
9125;DHT22;4597;48.730;9.114;2023-09-19T11:24:27;20.30;99.90
9125;DHT22;4597;48.730;9.114;2023-09-19T11:27:13;20.40;99.20
9125;DHT22;4597;48.730;9.114;2023-09-19T11:29:39;20.50;99.50
9125;DHT22;4597;48.730;9.114;2023-09-19T11:32:06;20.50;98.40
9125;DHT22;4597;48.730;9.114;2023-09-19T11:34:40;20.70;97.50
9125;DHT22;4597;48.730;9.114;2023-09-19T11:40:09;20.80;98.40
9125;DHT22;4597;48.730;9.114;2023-09-19T11:42:46;20.80;98.30
9125;DHT22;4597;48.730;9.114;2023-09-19T11:48:23;21.00;95.10
9125;DHT22;4597;48.730;9.114;2023-09-19T11:50:51;21.10;95.10
9125;DHT22;4597;48.730;9.114;2023-09-19T11:53:18;21.30;93.60
9125;DHT22;4597;48.730;9.114;2023-09-19T11:55:45;21.20;89.20
9125;DHT22;4597;48.730;9.114;2023-09-19T11:58:13;21.30;90.50
9125;DHT22;4597;48.730;9.114;2023-09-19T12:00:41;21.40;89.80
9125;DHT22;4597;48.730;9.114;2023-09-19T12:03:10;21.50;90.70
9125;DHT22;4597;48.730;9.114;2023-09-19T12:05:37;21.60;90.10
9125;DHT22;4597;48.730;9.114;2023-09-19T12:08:04;21.60;90.30
9125;DHT22;4597;48.730;9.114;2023-09-19T12:10:32;21.60;85.80
9125;DHT22;4597;48.730;9.114;2023-09-19T12:12:58;21.60;88.90
9125;DHT22;4597;48.730;9.114;2023-09-19T12:15:25;21.80;87.90
9125;DHT22;4597;48.730;9.114;2023-09-19T12:17:59;21.90;85.10
9125;DHT22;4597;48.730;9.114;2023-09-19T12:20:25;21.80;78.20
9125;DHT22;4597;48.730;9.114;2023-09-19T12:22:51;21.80;81.00
9125;DHT22;4597;48.730;9.114;2023-09-19T12:25:16;21.90;81.50
9125;DHT22;4597;48.730;9.114;2023-09-19T12:27:47;21.80;77.60
9125;DHT22;4597;48.730;9.114;2023-09-19T12:30:13;21.70;77.90
9125;DHT22;4597;48.730;9.114;2023-09-19T12:32:40;21.60;76.70
9125;DHT22;4597;48.730;9.114;2023-09-19T12:35:07;21.50;80.80
9125;DHT22;4597;48.730;9.114;2023-09-19T12:37:37;21.40;82.40
9125;DHT22;4597;48.730;9.114;2023-09-19T12:40:11;21.60;81.30
9125;DHT22;4597;48.730;9.114;2023-09-19T12:42:44;21.60;81.20
9125;DHT22;4597;48.730;9.114;2023-09-19T12:45:11;21.70;82.40
9125;DHT22;4597;48.730;9.114;2023-09-19T12:47:39;21.90;85.40
9125;DHT22;4597;48.730;9.114;2023-09-19T12:50:13;21.90;80.60
9125;DHT22;4597;48.730;9.114;2023-09-19T12:52:48;22.10;79.80
9125;DHT22;4597;48.730;9.114;2023-09-19T12:55:27;22.00;80.20
9125;DHT22;4597;48.730;9.114;2023-09-19T12:58:00;22.10;83.00
9125;DHT22;4597;48.730;9.114;2023-09-19T13:00:41;22.20;78.60
9125;DHT22;4597;48.730;9.114;2023-09-19T13:03:12;22.20;78.90
9125;DHT22;4597;48.730;9.114;2023-09-19T13:05:54;22.20;77.40
9125;DHT22;4597;48.730;9.114;2023-09-19T13:08:25;22.30;79.20
9125;DHT22;4597;48.730;9.114;2023-09-19T13:13:35;22.30;77.50
9125;DHT22;4597;48.730;9.114;2023-09-19T13:16:02;22.60;79.40
9125;DHT22;4597;48.730;9.114;2023-09-19T13:18:28;22.90;76.20
9125;DHT22;4597;48.730;9.114;2023-09-19T13:21:08;23.10;74.50
9125;DHT22;4597;48.730;9.114;2023-09-19T13:23:41;23.30;73.70
9125;DHT22;4597;48.730;9.114;2023-09-19T13:26:07;23.50;68.80
9125;DHT22;4597;48.730;9.114;2023-09-19T13:28:33;23.70;67.00
9125;DHT22;4597;48.730;9.114;2023-09-19T13:30:59;23.70;66.20
9125;DHT22;4597;48.730;9.114;2023-09-19T13:33:25;23.90;63.80
9125;DHT22;4597;48.730;9.114;2023-09-19T13:35:51;24.10;63.80
9125;DHT22;4597;48.730;9.114;2023-09-19T13:38:18;24.10;60.50
9125;DHT22;4597;48.730;9.114;2023-09-19T13:40:47;24.20;61.30
9125;DHT22;4597;48.730;9.114;2023-09-19T13:43:13;24.30;58.40
9125;DHT22;4597;48.730;9.114;2023-09-19T13:45:39;24.40;57.00
9125;DHT22;4597;48.730;9.114;2023-09-19T13:48:07;24.60;55.70
9125;DHT22;4597;48.730;9.114;2023-09-19T13:50:34;24.90;54.80
9125;DHT22;4597;48.730;9.114;2023-09-19T13:53:01;25.10;54.60
9125;DHT22;4597;48.730;9.114;2023-09-19T13:55:27;25.10;53.80
9125;DHT22;4597;48.730;9.114;2023-09-19T13:57:53;25.40;52.20
9125;DHT22;4597;48.730;9.114;2023-09-19T14:00:22;25.50;49.50
9125;DHT22;4597;48.730;9.114;2023-09-19T14:02:48;25.70;48.80
9125;DHT22;4597;48.730;9.114;2023-09-19T14:05:15;25.50;48.80
9125;DHT22;4597;48.730;9.114;2023-09-19T14:07:42;25.30;49.00
9125;DHT22;4597;48.730;9.114;2023-09-19T14:10:08;25.20;48.90
9125;DHT22;4597;48.730;9.114;2023-09-19T14:12:36;25.20;48.20
9125;DHT22;4597;48.730;9.114;2023-09-19T14:15:01;25.10;48.40
9125;DHT22;4597;48.730;9.114;2023-09-19T14:17:27;25.10;48.40
9125;DHT22;4597;48.730;9.114;2023-09-19T14:19:53;25.30;49.30
9125;DHT22;4597;48.730;9.114;2023-09-19T14:22:18;25.60;47.70
9125;DHT22;4597;48.730;9.114;2023-09-19T14:24:45;25.70;47.40
9125;DHT22;4597;48.730;9.114;2023-09-19T14:27:10;25.70;46.00
9125;DHT22;4597;48.730;9.114;2023-09-19T14:29:37;25.70;45.90
9125;DHT22;4597;48.730;9.114;2023-09-19T14:32:03;25.70;44.80
9125;DHT22;4597;48.730;9.114;2023-09-19T14:34:29;25.60;44.90
9125;DHT22;4597;48.730;9.114;2023-09-19T14:36:54;26.00;45.40
9125;DHT22;4597;48.730;9.114;2023-09-19T14:39:20;26.40;42.70
9125;DHT22;4597;48.730;9.114;2023-09-19T14:41:45;27.20;42.30
9125;DHT22;4597;48.730;9.114;2023-09-19T14:44:11;27.30;40.40
9125;DHT22;4597;48.730;9.114;2023-09-19T14:46:36;27.60;39.40
9125;DHT22;4597;48.730;9.114;2023-09-19T14:49:02;28.00;37.50
9125;DHT22;4597;48.730;9.114;2023-09-19T14:51:30;27.80;37.30
9125;DHT22;4597;48.730;9.114;2023-09-19T14:53:55;27.20;38.40
9125;DHT22;4597;48.730;9.114;2023-09-19T14:56:22;26.90;38.20
9125;DHT22;4597;48.730;9.114;2023-09-19T14:58:49;26.40;38.70
9125;DHT22;4597;48.730;9.114;2023-09-19T15:01:15;26.40;38.60
9125;DHT22;4597;48.730;9.114;2023-09-19T15:03:41;26.70;38.50
9125;DHT22;4597;48.730;9.114;2023-09-19T15:06:09;27.10;37.30
9125;DHT22;4597;48.730;9.114;2023-09-19T15:08:36;28.10;37.30
9125;DHT22;4597;48.730;9.114;2023-09-19T15:11:04;28.60;34.70
9125;DHT22;4597;48.730;9.114;2023-09-19T15:13:31;29.60;31.90
9125;DHT22;4597;48.730;9.114;2023-09-19T15:16:04;30.90;30.00
9125;DHT22;4597;48.730;9.114;2023-09-19T15:18:34;32.20;27.30
9125;DHT22;4597;48.730;9.114;2023-09-19T15:21:06;31.20;28.00
9125;DHT22;4597;48.730;9.114;2023-09-19T15:23:32;30.10;28.70
9125;DHT22;4597;48.730;9.114;2023-09-19T15:26:03;29.30;30.40
9125;DHT22;4597;48.730;9.114;2023-09-19T15:28:29;28.80;31.10
9125;DHT22;4597;48.730;9.114;2023-09-19T15:31:03;28.60;31.50
9125;DHT22;4597;48.730;9.114;2023-09-19T15:33:30;28.40;31.50
9125;DHT22;4597;48.730;9.114;2023-09-19T15:36:05;28.30;31.60
9125;DHT22;4597;48.730;9.114;2023-09-19T15:38:32;27.60;32.00
9125;DHT22;4597;48.730;9.114;2023-09-19T15:41:19;27.10;34.20
9125;DHT22;4597;48.730;9.114;2023-09-19T15:43:46;26.00;35.90
9125;DHT22;4597;48.730;9.114;2023-09-19T15:46:11;25.60;37.20
9125;DHT22;4597;48.730;9.114;2023-09-19T15:48:39;25.20;38.30
9125;DHT22;4597;48.730;9.114;2023-09-19T15:51:04;25.00;40.10
9125;DHT22;4597;48.730;9.114;2023-09-19T15:53:45;24.80;39.40
9125;DHT22;4597;48.730;9.114;2023-09-19T15:56:12;24.70;40.60
9125;DHT22;4597;48.730;9.114;2023-09-19T15:58:39;24.50;40.90
9125;DHT22;4597;48.730;9.114;2023-09-19T16:01:05;24.50;41.70
9125;DHT22;4597;48.730;9.114;2023-09-19T16:03:37;24.60;40.30
9125;DHT22;4597;48.730;9.114;2023-09-19T16:06:14;24.60;41.00
9125;DHT22;4597;48.730;9.114;2023-09-19T16:08:44;24.60;41.30
9125;DHT22;4597;48.730;9.114;2023-09-19T16:11:10;24.60;41.90
9125;DHT22;4597;48.730;9.114;2023-09-19T16:13:37;24.60;41.80
9125;DHT22;4597;48.730;9.114;2023-09-19T16:16:04;24.50;42.30
9125;DHT22;4597;48.730;9.114;2023-09-19T16:18:30;24.50;42.00
9125;DHT22;4597;48.730;9.114;2023-09-19T16:21:02;24.60;42.80
9125;DHT22;4597;48.730;9.114;2023-09-19T16:23:29;24.40;42.00
9125;DHT22;4597;48.730;9.114;2023-09-19T16:26:16;24.40;42.60
9125;DHT22;4597;48.730;9.114;2023-09-19T16:28:43;24.50;42.90
9125;DHT22;4597;48.730;9.114;2023-09-19T16:31:09;24.40;42.30
9125;DHT22;4597;48.730;9.114;2023-09-19T16:33:37;24.20;43.20